Time;durP1;ratioP1;P1;durP2;ratioP2;P2;SDS_P1;SDS_P2;PMS_P1;PMS_P2;Temp;Humidity;BMP_temperature;BMP_pressure;BME280_temperature;BME280_humidity;BME280_pressure;Samples;Min_cycle;Max_cycle;Signal;HPM_P1;HPM_P2
2024/04/20 00:00:39;;;;;;;2.05;1.30;;;17.90;56.20;;;;;;5571907;25;20211;-84
2024/04/20 00:03:05;;;;;;;1.38;1.20;;;17.80;56.10;;;;;;5540970;25;20214;-85
2024/04/20 00:05:32;;;;;;;1.70;1.40;;;18.00;56.30;;;;;;5571181;25;20257;-84
2024/04/20 00:07:58;;;;;;;2.45;1.58;;;18.00;56.30;;;;;;5509847;25;20258;-85
2024/04/20 00:10:25;;;;;;;1.52;1.30;;;17.90;56.30;;;;;;5509209;25;20278;-85
2024/04/20 00:12:51;;;;;;;1.98;1.50;;;17.90;55.90;;;;;;5539808;25;20231;-85
2024/04/20 00:15:18;;;;;;;1.77;1.25;;;18.00;56.10;;;;;;5571577;25;20249;-85
2024/04/20 00:17:47;;;;;;;1.77;1.30;;;17.90;56.10;;;;;;5539965;25;20219;-85
2024/04/20 00:20:14;;;;;;;1.30;1.20;;;17.90;56.20;;;;;;5507924;25;20223;-84
2024/04/20 00:22:40;;;;;;;2.55;1.40;;;17.90;56.30;;;;;;5539493;25;20215;-85
2024/04/20 00:25:06;;;;;;;1.52;1.40;;;17.90;56.20;;;;;;5509195;25;20253;-86
2024/04/20 00:27:37;;;;;;;2.35;1.40;;;17.90;56.50;;;;;;5507685;25;20243;-85
2024/04/20 00:30:05;;;;;;;2.15;1.27;;;17.80;56.60;;;;;;5477474;25;20254;-84
2024/04/20 00:32:32;;;;;;;1.70;1.40;;;17.90;56.20;;;;;;5570564;25;20215;-85
2024/04/20 00:35:00;;;;;;;1.55;1.42;;;17.80;56.50;;;;;;5508275;25;20270;-85
2024/04/20 00:37:25;;;;;;;1.88;1.30;;;17.90;56.30;;;;;;5508473;25;20690;-85
2024/04/20 00:39:52;;;;;;;1.20;1.10;;;17.80;56.20;;;;;;5508264;25;20259;-85
2024/04/20 00:42:18;;;;;;;1.52;1.10;;;17.80;56.20;;;;;;5538673;25;20218;-85
2024/04/20 00:44:44;;;;;;;1.38;1.20;;;17.90;56.50;;;;;;5570658;25;20212;-85
2024/04/20 00:47:10;;;;;;;1.85;1.25;;;17.90;56.20;;;;;;5539822;25;20215;-85
2024/04/20 00:49:36;;;;;;;1.48;1.25;;;17.90;56.60;;;;;;5520084;26;20233;-85
2024/04/20 00:52:04;;;;;;;1.42;1.02;;;17.90;56.20;;;;;;5465097;26;20217;-84
2024/04/20 00:54:31;;;;;;;2.47;1.77;;;17.90;56.20;;;;;;5465184;26;20217;-85
2024/04/20 00:56:59;;;;;;;1.40;1.30;;;17.80;56.50;;;;;;5465436;26;20217;-85
2024/04/20 00:59:31;;;;;;;1.40;1.20;;;17.80;56.60;;;;;;5466049;26;20247;-85
2024/04/20 01:01:59;;;;;;;2.13;1.20;;;17.90;56.70;;;;;;5465072;26;20217;-85
2024/04/20 01:04:24;;;;;;;1.38;1.20;;;17.80;56.60;;;;;;5454313;25;20231;-85
2024/04/20 01:06:53;;;;;;;1.30;1.20;;;17.80;56.60;;;;;;5539922;25;20253;-85
2024/04/20 01:09:19;;;;;;;1.40;1.30;;;17.80;56.20;;;;;;5562197;25;20244;-85
2024/04/20 01:11:45;;;;;;;2.30;1.27;;;17.90;56.40;;;;;;5502738;26;20254;-85
2024/04/20 01:14:15;;;;;;;1.83;1.27;;;17.80;56.20;;;;;;5471497;26;20281;-85
2024/04/20 01:16:42;;;;;;;1.73;1.38;;;17.80;55.90;;;;;;5470802;26;20224;-85
2024/04/20 01:19:11;;;;;;;1.42;1.33;;;17.80;56.20;;;;;;5532185;26;20211;-85
2024/04/20 01:21:40;;;;;;;1.40;1.30;;;17.80;56.10;;;;;;5502413;26;20224;-85
2024/04/20 01:24:07;;;;;;;1.30;1.20;;;17.80;56.10;;;;;;5534979;26;20266;-85
2024/04/20 01:26:32;;;;;;;1.70;1.30;;;17.90;56.20;;;;;;5531823;26;20223;-85
2024/04/20 01:28:58;;;;;;;3.03;1.25;;;17.80;56.20;;;;;;5502154;26;20246;-85
2024/04/20 01:31:24;;;;;;;1.35;1.25;;;17.80;56.50;;;;;;5501561;26;20216;-84
2024/04/20 01:33:50;;;;;;;1.30;1.20;;;17.80;56.50;;;;;;5471427;26;20217;-85
2024/04/20 01:36:16;;;;;;;1.20;1.10;;;17.80;56.30;;;;;;5501786;26;20220;-85
2024/04/20 01:38:45;;;;;;;1.40;1.30;;;17.80;56.40;;;;;;5501316;26;20263;-84
2024/04/20 01:41:12;;;;;;;1.63;1.38;;;17.80;56.30;;;;;;5501673;26;20538;-85
2024/04/20 01:43:39;;;;;;;1.27;1.17;;;17.80;56.50;;;;;;5501205;26;20242;-85
2024/04/20 01:46:05;;;;;;;1.40;1.25;;;17.80;56.80;;;;;;5471058;26;20219;-85
2024/04/20 01:48:33;;;;;;;1.60;1.30;;;17.80;57.30;;;;;;5503602;26;20266;-86
2024/04/20 01:50:59;;;;;;;2.00;1.40;;;17.80;56.30;;;;;;5504998;26;20216;-85
2024/04/20 01:53:31;;;;;;;1.52;1.42;;;17.80;56.70;;;;;;5505273;26;20219;-85
2024/04/20 01:55:57;;;;;;;1.98;1.48;;;17.80;56.40;;;;;;5504284;26;20343;-84
2024/04/20 01:58:24;;;;;;;1.38;1.27;;;17.80;56.20;;;;;;5504688;26;20224;-85
2024/04/20 02:00:51;;;;;;;1.17;1.08;;;17.80;57.30;;;;;;5505088;26;20224;-85
2024/04/20 02:03:17;;;;;;;1.42;1.17;;;17.80;56.50;;;;;;5474745;26;20287;-85
2024/04/20 02:05:43;;;;;;;1.38;1.20;;;17.80;56.20;;;;;;5528083;25;20273;-85
2024/04/20 02:08:11;;;;;;;1.38;1.13;;;17.80;56.60;;;;;;5573080;25;20226;-85
2024/04/20 02:10:37;;;;;;;1.55;1.20;;;17.80;57.30;;;;;;5519935;26;20232;-84
2024/04/20 02:13:03;;;;;;;1.27;1.17;;;17.80;56.60;;;;;;5474494;26;20208;-85
2024/04/20 02:15:28;;;;;;;2.30;1.40;;;17.80;56.40;;;;;;5505103;26;20215;-85
2024/04/20 02:17:54;;;;;;;1.38;1.25;;;17.80;56.50;;;;;;5474159;26;20212;-85
2024/04/20 02:20:20;;;;;;;2.30;1.52;;;17.70;56.50;;;;;;5504399;26;20228;-84
2024/04/20 02:22:47;;;;;;;1.35;0.95;;;17.70;56.60;;;;;;5473475;26;20231;-85
2024/04/20 02:25:12;;;;;;;2.70;1.50;;;17.70;57.00;;;;;;5504126;26;20212;-85
2024/04/20 02:27:41;;;;;;;1.45;1.35;;;17.80;56.70;;;;;;5503864;26;20301;-85
2024/04/20 02:30:07;;;;;;;1.48;1.30;;;17.70;56.60;;;;;;5472442;26;20224;-85
2024/04/20 02:32:33;;;;;;;1.90;1.30;;;17.70;56.70;;;;;;5504619;26;20208;-85
2024/04/20 02:34:59;;;;;;;1.50;1.40;;;17.70;56.60;;;;;;5544238;25;20876;-85
2024/04/20 02:37:26;;;;;;;1.60;1.50;;;17.80;56.60;;;;;;5510175;25;20538;-85
2024/04/20 02:39:52;;;;;;;1.27;1.15;;;17.70;56.80;;;;;;5533562;26;20297;-84
2024/04/20 02:42:19;;;;;;;1.40;1.27;;;17.70;56.50;;;;;;5474600;26;20216;-85
2024/04/20 02:44:45;;;;;;;1.45;1.25;;;17.70;56.80;;;;;;5508198;25;20265;-85
2024/04/20 02:47:11;;;;;;;1.83;1.50;;;17.70;56.60;;;;;;5572338;25;20231;-85
2024/04/20 02:49:37;;;;;;;1.30;1.20;;;17.70;56.20;;;;;;5510369;25;20243;-85
2024/04/20 02:52:03;;;;;;;1.60;1.38;;;17.80;56.90;;;;;;5540915;25;20215;-85
2024/04/20 02:54:29;;;;;;;1.50;1.40;;;17.70;56.40;;;;;;5572778;25;20306;-84
2024/04/20 02:56:55;;;;;;;3.05;1.40;;;17.70;56.80;;;;;;5467538;26;20248;-85
2024/04/20 02:59:25;;;;;;;1.50;1.40;;;17.70;56.90;;;;;;5437378;26;20220;-86
2024/04/20 03:01:51;;;;;;;1.63;1.50;;;17.70;56.60;;;;;;5466459;26;20216;-85
2024/04/20 03:04:17;;;;;;;2.38;1.50;;;17.70;56.90;;;;;;5468283;26;20256;-85
2024/04/20 03:06:42;;;;;;;1.55;1.30;;;17.70;56.60;;;;;;5497726;26;20281;-85
2024/04/20 03:09:08;;;;;;;3.58;1.50;;;17.70;56.60;;;;;;5498022;26;20213;-85
2024/04/20 03:11:34;;;;;;;1.58;1.20;;;17.70;56.60;;;;;;5498135;26;20225;-85
2024/04/20 03:14:01;;;;;;;1.98;1.35;;;17.70;56.70;;;;;;5467316;26;20259;-84
2024/04/20 03:16:26;;;;;;;1.75;1.33;;;17.70;56.90;;;;;;5467946;26;20213;-85
2024/04/20 03:18:53;;;;;;;1.55;1.20;;;17.70;56.60;;;;;;5437114;26;20221;-85
2024/04/20 03:21:21;;;;;;;2.75;1.33;;;17.80;56.70;;;;;;5522611;25;20224;-85
2024/04/20 03:23:49;;;;;;;1.67;1.35;;;17.70;56.80;;;;;;5474226;26;20216;-85
2024/04/20 03:26:15;;;;;;;1.20;1.10;;;17.80;56.90;;;;;;5442182;26;20647;-85
2024/04/20 03:28:41;;;;;;;2.00;1.45;;;17.80;56.80;;;;;;5504577;26;20221;-84
2024/04/20 03:31:09;;;;;;;1.48;1.38;;;17.70;56.70;;;;;;5525015;25;20235;-85
2024/04/20 03:33:36;;;;;;;1.48;1.15;;;17.70;56.70;;;;;;5541562;25;20210;-85
2024/04/20 03:36:04;;;;;;;1.75;1.45;;;17.70;56.90;;;;;;5509264;25;20254;-84
2024/04/20 03:38:35;;;;;;;3.13;1.50;;;17.70;56.90;;;;;;5541215;25;20685;-85
2024/04/20 03:41:03;;;;;;;1.80;1.50;;;17.70;56.80;;;;;;5478353;25;20279;-86
2024/04/20 03:43:30;;;;;;;2.33;1.40;;;17.70;56.60;;;;;;5541268;25;20245;-84
2024/04/20 03:45:56;;;;;;;1.40;1.30;;;17.70;56.80;;;;;;5517957;26;20275;-85
2024/04/20 03:48:24;;;;;;;1.33;1.23;;;17.80;56.50;;;;;;5528346;26;20217;-84
2024/04/20 03:50:53;;;;;;;2.05;1.42;;;17.80;56.50;;;;;;5498289;26;20217;-85
2024/04/20 03:53:20;;;;;;;1.38;1.27;;;17.70;56.90;;;;;;5438107;26;20217;-84
2024/04/20 03:55:46;;;;;;;1.60;1.35;;;17.80;56.80;;;;;;5467220;26;20217;-85
2024/04/20 03:58:12;;;;;;;1.30;1.20;;;17.70;56.90;;;;;;5466572;26;20278;-85
2024/04/20 04:00:38;;;;;;;1.38;1.20;;;17.70;56.90;;;;;;5477159;26;20344;-85
2024/04/20 04:03:04;;;;;;;1.38;1.27;;;17.80;56.80;;;;;;5473003;26;20216;-85
2024/04/20 04:05:30;;;;;;;1.67;1.58;;;17.70;56.70;;;;;;5534286;26;20216;-84
2024/04/20 04:07:56;;;;;;;1.52;1.35;;;17.70;56.70;;;;;;5503228;26;20254;-85
2024/04/20 04:10:24;;;;;;;1.40;1.30;;;17.70;56.90;;;;;;5471444;26;20224;-84
2024/04/20 04:12:51;;;;;;;1.38;1.25;;;17.70;56.40;;;;;;5503058;26;20204;-84
2024/04/20 04:15:18;;;;;;;1.73;1.35;;;17.70;56.40;;;;;;5507092;25;20258;-85
2024/04/20 04:17:47;;;;;;;1.50;1.40;;;17.70;56.70;;;;;;5540359;25;20203;-85
2024/04/20 04:20:14;;;;;;;1.48;1.15;;;17.70;56.60;;;;;;5540764;25;20223;-85
2024/04/20 04:22:42;;;;;;;2.35;1.33;;;17.80;56.90;;;;;;5539999;25;20726;-85
2024/04/20 04:25:10;;;;;;;1.38;1.27;;;17.70;56.60;;;;;;5509454;25;20314;-85
2024/04/20 04:27:37;;;;;;;2.25;1.38;;;17.70;56.70;;;;;;5466619;26;20273;-85
2024/04/20 04:30:04;;;;;;;1.40;1.30;;;17.70;57.00;;;;;;5460289;26;20571;-85
2024/04/20 04:32:29;;;;;;;1.45;1.30;;;17.70;56.60;;;;;;5461391;26;21292;-85
2024/04/20 04:34:56;;;;;;;1.63;1.30;;;17.70;56.70;;;;;;5460764;26;20214;-85
2024/04/20 04:37:28;;;;;;;2.38;1.27;;;17.70;56.80;;;;;;5526328;26;20301;-85
2024/04/20 04:39:56;;;;;;;1.58;1.40;;;17.70;56.80;;;;;;5502625;26;20220;-85
2024/04/20 04:42:28;;;;;;;1.40;1.30;;;17.70;56.90;;;;;;5433672;26;20708;-85
2024/04/20 04:44:55;;;;;;;1.58;1.27;;;17.80;56.80;;;;;;5459806;26;20214;-85
2024/04/20 04:47:21;;;;;;;1.42;1.10;;;17.70;56.80;;;;;;5524032;26;20220;-85
2024/04/20 04:49:50;;;;;;;1.27;1.13;;;17.70;56.80;;;;;;5472970;26;20259;-85
2024/04/20 04:52:17;;;;;;;2.35;1.20;;;17.70;56.70;;;;;;5501544;26;20216;-85
2024/04/20 04:54:46;;;;;;;2.65;1.42;;;17.70;56.70;;;;;;5502169;26;20261;-85
2024/04/20 04:57:11;;;;;;;1.30;1.20;;;17.60;56.70;;;;;;5503399;26;20293;-85
2024/04/20 04:59:37;;;;;;;1.90;1.60;;;17.70;56.60;;;;;;5466212;26;20213;-85
2024/04/20 05:02:04;;;;;;;1.40;1.30;;;17.70;56.80;;;;;;5466351;26;20248;-85
2024/04/20 05:04:30;;;;;;;1.60;1.27;;;17.70;56.90;;;;;;5435781;26;20205;-84
2024/04/20 05:06:56;;;;;;;1.60;1.50;;;17.70;56.80;;;;;;5436249;26;20239;-84
2024/04/20 05:09:22;;;;;;;1.52;1.30;;;17.70;57.20;;;;;;5465952;26;20213;-85
2024/04/20 05:11:48;;;;;;;2.00;1.40;;;17.70;57.00;;;;;;5516301;26;20282;-85
2024/04/20 05:14:15;;;;;;;1.58;1.30;;;17.70;57.10;;;;;;5503347;26;20247;-85
2024/04/20 05:16:47;;;;;;;1.73;1.40;;;17.70;57.00;;;;;;5503639;26;20250;-85
2024/04/20 05:19:15;;;;;;;1.63;1.52;;;17.70;56.90;;;;;;5473331;26;20218;-85
2024/04/20 05:21:41;;;;;;;1.77;1.27;;;17.60;56.90;;;;;;5470698;26;20216;-85
2024/04/20 05:24:07;;;;;;;1.52;1.13;;;17.60;57.00;;;;;;5534141;26;20246;-85
2024/04/20 05:26:33;;;;;;;1.30;1.20;;;17.70;56.90;;;;;;5469841;26;20247;-85
2024/04/20 05:28:59;;;;;;;1.55;1.45;;;17.60;57.30;;;;;;5503238;26;20220;-85
2024/04/20 05:31:26;;;;;;;1.85;1.50;;;17.70;57.20;;;;;;5472655;26;20228;-85
2024/04/20 05:33:53;;;;;;;2.05;1.40;;;17.70;57.00;;;;;;5503834;26;20300;-84
2024/04/20 05:36:19;;;;;;;3.47;1.58;;;17.60;56.90;;;;;;5502274;26;20212;-84
2024/04/20 05:38:50;;;;;;;1.50;1.40;;;17.60;57.30;;;;;;5495588;26;20216;-84
2024/04/20 05:41:15;;;;;;;2.72;1.73;;;17.70;57.00;;;;;;5462445;26;20296;-84
2024/04/20 05:43:41;;;;;;;1.30;1.20;;;17.70;57.10;;;;;;5463731;26;20224;-84
2024/04/20 05:46:10;;;;;;;1.70;1.30;;;17.70;57.20;;;;;;5493657;26;20266;-85
2024/04/20 05:48:36;;;;;;;2.58;1.40;;;17.70;57.30;;;;;;5462836;26;20284;-85
2024/04/20 05:51:03;;;;;;;2.00;1.27;;;17.70;57.30;;;;;;5493626;26;20212;-84
2024/04/20 05:53:28;;;;;;;1.63;1.35;;;17.70;57.20;;;;;;5496539;26;20261;-85
2024/04/20 05:56:00;;;;;;;7.43;1.58;;;17.60;57.30;;;;;;5472133;26;20220;-84
2024/04/20 05:58:32;;;;;;;2.67;1.50;;;17.70;57.20;;;;;;5473537;26;20223;-83
2024/04/20 06:01:04;;;;;;;3.08;1.50;;;17.70;57.30;;;;;;5473259;26;20283;-84
2024/04/20 06:03:33;;;;;;;2.22;1.58;;;17.70;57.00;;;;;;5534521;26;20685;-85
2024/04/20 06:05:59;;;;;;;1.40;1.30;;;17.70;57.00;;;;;;5473203;26;20263;-84
2024/04/20 06:08:34;;;;;;;1.98;1.50;;;17.80;56.60;;;;;;5475387;26;20219;-85
2024/04/20 06:11:09;;;;;;;1.45;1.35;;;17.90;56.80;;;;;;5509560;26;20216;-84
2024/04/20 06:13:35;;;;;;;2.17;1.58;;;17.90;57.10;;;;;;5481833;26;20247;-84
2024/04/20 06:16:07;;;;;;;5.90;1.40;;;17.90;56.60;;;;;;5465286;26;20257;-85
2024/04/20 06:18:40;;;;;;;2.35;1.48;;;17.90;56.80;;;;;;5406525;26;20225;-85
2024/04/20 06:21:13;;;;;;;2.28;1.40;;;18.00;56.60;;;;;;5349147;26;20228;-84
2024/04/20 06:23:47;;;;;;;1.73;1.60;;;17.90;56.60;;;;;;5462373;26;20221;-84
2024/04/20 06:26:13;;;;;;;1.38;1.27;;;17.80;56.80;;;;;;5430359;26;20669;-84
2024/04/20 06:28:42;;;;;;;2.22;1.42;;;17.90;56.70;;;;;;5405349;26;20213;-85
2024/04/20 06:31:09;;;;;;;1.38;1.25;;;18.00;56.20;;;;;;5374318;26;20221;-85
2024/04/20 06:33:44;;;;;;;1.77;1.40;;;18.00;56.00;;;;;;5440644;26;20221;-84
2024/04/20 06:36:15;;;;;;;2.00;1.40;;;18.00;56.30;;;;;;5473309;26;20220;-84
2024/04/20 06:38:42;;;;;;;1.67;1.55;;;18.00;56.40;;;;;;5438029;26;20217;-84
2024/04/20 06:41:09;;;;;;;1.75;1.45;;;18.00;56.00;;;;;;5471604;26;20251;-84
2024/04/20 06:43:50;;;;;;;2.22;1.75;;;18.10;56.10;;;;;;5473712;26;20225;-85
2024/04/20 06:46:26;;;;;;;1.65;1.52;;;18.10;56.50;;;;;;5481893;25;20606;-85
2024/04/20 06:48:53;;;;;;;2.75;1.50;;;18.00;56.40;;;;;;5547290;25;20280;-85
2024/04/20 06:51:19;;;;;;;2.28;1.60;;;18.00;56.60;;;;;;5517249;25;20219;-84
2024/04/20 06:53:44;;;;;;;1.55;1.35;;;18.00;56.60;;;;;;5511653;25;20311;-85
2024/04/20 06:56:36;;;;;;;2.97;1.42;;;18.10;56.20;;;;;;5511961;25;20211;-86
2024/04/20 06:59:09;;;;;;;2.58;1.30;;;18.10;56.40;;;;;;5498210;26;20246;-87
2024/04/20 07:01:37;;;;;;;2.25;1.55;;;18.00;56.20;;;;;;5438474;26;20281;-86
2024/04/20 07:04:09;;;;;;;3.45;1.65;;;18.10;56.20;;;;;;5379279;26;20308;-87
2024/04/20 07:06:35;;;;;;;4.78;1.65;;;18.10;55.70;;;;;;5401611;26;20255;-86
2024/04/20 07:09:20;;;;;;;;;;;;;;;;;;;;;
2024/04/20 07:11:51;;;;;;;3.53;1.35;;;18.30;55.60;;;;;;5359526;26;20229;-84
2024/04/20 07:14:20;;;;;;;4.32;1.60;;;18.30;55.00;;;;;;5334909;26;20737;-86
2024/04/20 07:16:56;;;;;;;6.97;1.63;;;18.20;55.30;;;;;;5275409;26;20252;-84
2024/04/20 07:19:27;;;;;;;7.07;1.70;;;18.40;55.00;;;;;;5330356;26;20221;-86
2024/04/20 07:21:56;;;;;;;10.43;2.42;;;18.30;55.00;;;;;;5325977;26;20260;-84
2024/04/20 07:24:27;;;;;;;19.60;2.45;;;18.40;54.60;;;;;;5326711;26;20221;-86
2024/04/20 07:27:03;;;;;;;17.10;3.03;;;18.30;54.90;;;;;;5326599;26;20268;-86
2024/04/20 07:29:40;;;;;;;18.30;2.47;;;18.30;55.70;;;;;;5327664;26;20225;-84
2024/04/20 07:32:14;;;;;;;27.02;3.08;;;18.40;55.10;;;;;;5351807;26;20219;-85
2024/04/20 07:34:46;;;;;;;31.77;2.80;;;18.30;55.40;;;;;;5359235;26;20256;-86
2024/04/20 07:37:56;;;;;;;14.85;2.13;;;18.40;55.60;;;;;;5383757;26;21209;-86
2024/04/20 07:40:49;;;;;;;16.85;2.53;;;18.30;55.60;;;;;;5321819;27;20226;-87
2024/04/20 07:43:18;;;;;;;16.73;2.17;;;18.20;55.80;;;;;;5263240;27;20611;-86
2024/04/20 07:46:02;;;;;;;12.30;2.20;;;18.20;55.50;;;;;;5318648;26;20226;-87
2024/04/20 07:48:33;;;;;;;15.93;2.50;;;18.30;55.60;;;;;;5275838;26;20295;-86
2024/04/20 07:51:45;;;;;;;13.90;2.17;;;18.30;55.10;;;;;;5323864;26;20261;-87
2024/04/20 07:53:55;;;;;;;17.13;2.25;;;18.30;55.30;;;;;;5300354;27;20316;-87
2024/04/20 07:56:46;;;;;;;9.95;2.08;;;18.30;55.60;;;;;;5282689;27;20266;-85
2024/04/20 07:59:12;;;;;;;8.15;1.85;;;18.30;55.20;;;;;;5278588;27;20247;-84
2024/04/20 08:01:50;;;;;;;12.90;2.47;;;18.30;55.20;;;;;;5252784;27;20265;-88
2024/04/20 08:04:15;;;;;;;10.55;2.22;;;18.40;54.40;;;;;;5281438;27;20223;-86
2024/04/20 08:06:51;;;;;;;13.85;2.53;;;18.50;54.50;;;;;;5287954;27;20260;-87
2024/04/20 08:09:37;;;;;;;13.63;2.78;;;18.40;55.00;;;;;;5292574;27;20322;-86
2024/04/20 08:12:05;;;;;;;16.75;2.90;;;18.40;53.90;;;;;;5264242;27;20222;-85
2024/04/20 08:14:56;;;;;;;13.45;2.38;;;18.40;54.80;;;;;;5263614;27;20218;-86
2024/04/20 08:17:22;;;;;;;14.35;2.25;;;18.60;54.50;;;;;;5276926;26;20274;-84
2024/04/20 08:19:52;;;;;;;18.63;2.83;;;18.50;54.90;;;;;;5329710;26;20220;-85
2024/04/20 08:24:04;;;;;;;17.48;2.72;;;18.60;54.80;;;;;;5359387;26;20220;-88
2024/04/20 08:26:18;;;;;;;13.57;2.00;;;18.50;55.70;;;;;;5179052;27;20250;-85
2024/04/20 08:28:52;;;;;;;11.45;2.55;;;18.60;54.20;;;;;;5218479;27;20245;-85
2024/04/20 08:31:19;;;;;;;5.13;1.70;;;18.70;53.00;;;;;;5164274;27;20225;-85
2024/04/20 08:33:54;;;;;;;12.68;2.20;;;18.80;52.30;;;;;;5162460;27;20305;-86
2024/04/20 08:36:28;;;;;;;9.75;2.10;;;18.70;54.60;;;;;;5193775;27;20228;-86
2024/04/20 08:39:16;;;;;;;13.57;2.67;;;18.70;53.70;;;;;;5225271;27;20262;-85
2024/04/20 08:42:25;;;;;;;;;;;;;;;;;;;;;
2024/04/20 08:45:14;;;;;;;;;;;;;;;;;;;;;
2024/04/20 08:47:56;;;;;;;;;;;;;;;;;;;;;
2024/04/20 08:51:02;;;;;;;;;;;;;;;;;;;;;
2024/04/20 08:53:59;;;;;;;;;;;;;;;;;;;;;
2024/04/20 08:56:55;;;;;;;5.30;1.98;;;18.70;53.90;;;;;;5028394;28;20584;-87
2024/04/20 08:59:36;;;;;;;;;;;;;;;;;;;;;
2024/04/20 09:02:58;;;;;;;10.13;2.10;;;18.80;53.00;;;;;;5135543;27;20348;-86
2024/04/20 09:05:01;;;;;;;7.13;1.77;;;18.70;53.30;;;;;;5277818;27;20231;-86
2024/04/20 09:08:09;;;;;;;9.10;1.77;;;18.70;53.20;;;;;;5250300;27;20281;-86
2024/04/20 09:10:40;;;;;;;15.23;2.08;;;18.80;53.60;;;;;;5226220;27;20263;-85
2024/04/20 09:13:21;;;;;;;11.18;1.95;;;18.80;53.60;;;;;;5195019;27;20390;-86
2024/04/20 09:19:41;;;;;;;;;;;;;;;;;;;;;
2024/04/20 09:22:36;;;;;;;13.52;1.77;;;18.90;53.90;;;;;;5171142;27;20249;-87
2024/04/20 09:26:05;;;;;;;;;;;;;;;;;;;;;
2024/04/20 09:29:43;;;;;;;;;;;;;;;;;;;;;
2024/04/20 09:33:19;;;;;;;;;;;;;;;;;;;;;
2024/04/20 09:36:04;;;;;;;14.25;2.22;;;18.90;54.60;;;;;;5064617;28;20339;-83
2024/04/20 09:38:41;;;;;;;13.77;2.22;;;18.90;53.90;;;;;;5107625;28;20248;-84
2024/04/20 09:41:13;;;;;;;11.65;2.05;;;18.90;53.40;;;;;;5093718;28;20230;-84
2024/04/20 09:43:58;;;;;;;;;;;;;;;;;;;;;
2024/04/20 09:46:56;;;;;;;10.65;1.80;;;18.90;54.20;;;;;;5066569;28;20276;-85
2024/04/20 09:49:29;;;;;;;9.77;2.10;;;19.00;52.90;;;;;;5077490;28;20236;-84
2024/04/20 09:52:15;;;;;;;6.10;1.63;;;19.00;53.10;;;;;;5158860;27;20273;-82
2024/04/20 09:55:14;;;;;;;15.18;2.00;;;19.10;52.60;;;;;;5189358;27;20276;-83
2024/04/20 09:57:57;;;;;;;;;;;;;;;;;;;;;
2024/04/20 10:00:34;;;;;;;11.30;1.85;;;19.10;52.40;;;;;;5246052;27;20672;-84
2024/04/20 10:03:18;;;;;;;12.05;2.10;;;19.20;53.80;;;;;;5282639;27;20300;-84
2024/04/20 10:06:10;;;;;;;8.13;1.77;;;19.00;54.50;;;;;;5250755;27;20611;-82
2024/04/20 10:08:42;;;;;;;7.10;1.80;;;19.00;54.30;;;;;;5222606;27;20221;-84
2024/04/20 10:11:22;;;;;;;;;;;;;;;;;;;;;
2024/04/20 10:14:03;;;;;;;9.63;1.90;;;18.90;54.10;;;;;;5224584;27;20243;-83
2024/04/20 10:16:37;;;;;;;10.02;1.88;;;18.90;54.60;;;;;;5203401;27;20229;-83
2024/04/20 10:19:11;;;;;;;8.82;1.70;;;18.90;53.20;;;;;;5228201;27;20219;-83
2024/04/20 10:22:11;;;;;;;8.75;1.90;;;18.90;54.40;;;;;;5271792;27;20214;-84
2024/04/20 10:25:00;;;;;;;11.65;1.80;;;18.90;54.00;;;;;;5300787;27;20215;-83
2024/04/20 10:27:36;;;;;;;7.85;1.75;;;18.90;53.60;;;;;;5309743;26;20232;-82
2024/04/20 10:30:22;;;;;;;6.90;1.80;;;18.90;54.60;;;;;;5394182;26;20242;-83
2024/04/20 10:32:51;;;;;;;10.02;1.45;;;18.90;54.20;;;;;;5404668;26;20326;-83
2024/04/20 10:36:02;;;;;;;;;;;;;;;;;;;;;
2024/04/20 10:38:37;;;;;;;8.32;1.90;;;18.90;54.50;;;;;;5407259;26;20234;-83
2024/04/20 10:41:15;;;;;;;12.05;1.73;;;18.90;55.20;;;;;;5404441;26;20222;-85
2024/04/20 10:43:46;;;;;;;6.38;1.90;;;18.90;55.00;;;;;;5386430;26;20582;-84
2024/04/20 10:46:39;;;;;;;10.02;1.88;;;19.00;54.90;;;;;;5407987;26;20234;-84
2024/04/20 10:49:13;;;;;;;8.25;1.75;;;19.00;54.70;;;;;;5383516;26;20243;-82
2024/04/20 10:52:04;;;;;;;7.65;1.85;;;19.00;54.90;;;;;;5313739;26;20223;-82
2024/04/20 10:58:10;;;;;;;10.55;1.70;;;19.10;52.80;;;;;;5154520;27;20235;-85
2024/04/20 11:00:42;;;;;;;9.93;1.70;;;19.10;53.10;;;;;;5155472;27;20244;-82
2024/04/20 11:03:43;;;;;;;10.82;1.98;;;19.10;50.60;;;;;;5129125;27;20223;-85
2024/04/20 11:06:19;;;;;;;14.02;2.45;;;19.10;53.30;;;;;;5000469;28;20275;-83
2024/04/20 11:09:06;;;;;;;;;;;;;;;;;;;;;
2024/04/20 11:11:42;;;;;;;12.82;1.83;;;19.00;53.50;;;;;;4976474;28;20262;-83
2024/04/20 11:15:05;;;;;;;7.30;1.55;;;19.00;51.20;;;;;;4998192;28;20689;-87
2024/04/20 11:18:02;;;;;;;11.00;2.20;;;19.00;50.30;;;;;;5016635;28;20319;-85
2024/04/20 11:20:31;;;;;;;12.23;2.05;;;18.90;51.40;;;;;;4965180;28;20238;-86
2024/04/20 11:23:25;;;;;;;14.00;2.30;;;19.00;52.10;;;;;;4963653;29;20739;-85
2024/04/20 11:26:12;;;;;;;8.75;1.67;;;18.90;52.20;;;;;;4957494;29;20280;-86
2024/04/20 11:28:47;;;;;;;13.45;2.25;;;19.00;51.50;;;;;;4938962;29;20356;-86
2024/04/20 11:31:14;;;;;;;13.45;1.73;;;19.00;52.60;;;;;;4936341;29;20277;-87
2024/04/20 11:33:47;;;;;;;10.27;1.52;;;19.00;52.90;;;;;;4945859;29;20239;-84
2024/04/20 11:36:19;;;;;;;14.23;2.25;;;18.90;52.70;;;;;;5058934;28;20234;-85
2024/04/20 11:38:46;;;;;;;15.13;1.98;;;19.00;53.50;;;;;;5033009;28;20326;-84
2024/04/20 11:41:24;;;;;;;13.32;2.60;;;18.90;52.70;;;;;;5109269;27;20271;-84
2024/04/20 11:44:04;;;;;;;13.75;2.60;;;19.00;52.80;;;;;;5140315;27;20665;-87
2024/04/20 11:46:37;;;;;;;14.40;2.47;;;19.00;53.80;;;;;;5075748;28;20283;-86
2024/04/20 11:49:15;;;;;;;17.15;2.80;;;19.00;52.50;;;;;;5099360;28;20271;-86
2024/04/20 11:55:02;;;;;;;13.55;2.30;;;19.00;54.40;;;;;;5205582;27;20276;-83
2024/04/20 11:57:36;;;;;;;16.23;2.00;;;18.90;54.50;;;;;;5297313;27;20549;-84
2024/04/20 12:00:08;;;;;;;10.35;2.00;;;18.90;54.50;;;;;;5239123;27;20435;-83
2024/04/20 12:02:34;;;;;;;10.35;2.20;;;18.80;54.40;;;;;;5295083;27;20286;-85
2024/04/20 12:05:12;;;;;;;8.77;2.08;;;18.80;54.10;;;;;;5264715;27;20278;-83
2024/04/20 12:07:46;;;;;;;10.88;2.50;;;18.80;54.40;;;;;;5267545;27;20263;-83
2024/04/20 12:10:49;;;;;;;8.88;1.63;;;18.80;54.90;;;;;;5287508;27;20242;-85
2024/04/20 12:13:28;;;;;;;12.63;2.30;;;18.80;54.40;;;;;;5134985;27;20413;-84
2024/04/20 12:16:15;;;;;;;;;;;;;;;;;;;;;
2024/04/20 12:18:46;;;;;;;11.80;2.25;;;18.80;53.60;;;;;;5174520;27;20240;-83
2024/04/20 12:21:24;;;;;;;10.18;2.15;;;18.80;53.90;;;;;;5207417;27;20232;-86
2024/04/20 12:24:17;;;;;;;12.38;2.30;;;18.80;53.90;;;;;;5273142;26;20284;-83
2024/04/20 12:27:22;;;;;;;10.57;2.20;;;18.80;52.40;;;;;;5299733;26;20252;-83
2024/04/20 12:29:58;;;;;;;8.23;1.70;;;18.90;53.30;;;;;;5286126;27;20224;-84
2024/04/20 12:32:50;;;;;;;10.25;1.85;;;18.90;51.80;;;;;;5281240;27;20288;-83
2024/04/20 12:35:32;;;;;;;14.50;2.03;;;18.90;52.10;;;;;;5277259;27;20299;-82
2024/04/20 12:38:28;;;;;;;9.65;1.67;;;18.90;52.10;;;;;;5239481;27;20230;-84
2024/04/20 12:41:07;;;;;;;10.95;1.95;;;18.80;51.50;;;;;;5189613;27;20243;-85
2024/04/20 12:44:10;;;;;;;;;;;;;;;;;;;;;
2024/04/20 12:46:48;;;;;;;7.38;1.60;;;18.80;51.20;;;;;;5189683;27;20231;-85
2024/04/20 12:49:28;;;;;;;7.32;1.67;;;18.80;52.00;;;;;;5289186;27;20283;-86
2024/04/20 12:52:16;;;;;;;;;;;;;;;;;;;;;
2024/04/20 12:55:16;;;;;;;9.35;1.83;;;18.80;52.50;;;;;;5221649;27;20320;-85
2024/04/20 12:58:17;;;;;;;7.80;1.88;;;18.80;52.70;;;;;;5193454;27;20252;-84
2024/04/20 13:00:53;;;;;;;6.28;1.70;;;18.80;52.80;;;;;;5122148;27;20236;-83
2024/04/20 13:03:36;;;;;;;6.90;1.75;;;18.80;51.70;;;;;;5122451;28;20256;-85
2024/04/20 13:06:08;;;;;;;8.38;1.70;;;18.90;52.30;;;;;;5086388;28;20257;-83
2024/04/20 13:12:05;;;;;;;10.57;1.88;;;18.90;52.20;;;;;;5157259;27;20291;-81
2024/04/20 13:15:35;;;;;;;10.80;2.33;;;18.90;52.80;;;;;;5155131;27;20227;-84
2024/04/20 13:21:36;;;;;;;10.07;2.13;;;19.00;51.90;;;;;;4997807;28;20240;-84
2024/04/20 13:24:45;;;;;;;;;;;;;;;;;;;;;
2024/04/20 13:27:46;;;;;;;7.50;1.90;;;19.00;51.90;;;;;;4992191;28;20237;-85
2024/04/20 13:30:30;;;;;;;9.98;2.10;;;19.10;51.70;;;;;;4928219;29;20397;-84
2024/04/20 13:33:02;;;;;;;16.85;2.63;;;19.20;51.10;;;;;;4939399;29;20342;-86
2024/04/20 13:36:32;;;;;;;12.70;2.58;;;19.20;52.00;;;;;;4958933;28;20246;-84
2024/04/20 13:42:59;;;;;;;15.80;2.30;;;19.20;52.20;;;;;;4984761;28;20238;-86
2024/04/20 13:45:10;;;;;;;20.88;2.33;;;19.20;52.80;;;;;;4942982;28;20250;-84
2024/04/20 13:47:40;;;;;;;8.70;2.25;;;19.20;52.50;;;;;;4938831;29;20266;-82
2024/04/20 13:50:15;;;;;;;15.95;2.50;;;19.20;52.80;;;;;;4910561;29;20228;-82
2024/04/20 13:52:44;;;;;;;14.95;2.20;;;19.20;51.80;;;;;;4910889;29;20243;-83
2024/04/20 13:55:11;;;;;;;20.35;2.90;;;19.10;50.70;;;;;;4967494;28;20284;-85
2024/04/20 13:57:41;;;;;;;14.07;2.40;;;19.10;51.10;;;;;;5016894;28;20375;-83
2024/04/20 14:00:07;;;;;;;16.17;2.40;;;19.10;50.80;;;;;;5011221;28;20435;-82
2024/04/20 14:02:41;;;;;;;13.55;2.42;;;19.10;51.30;;;;;;5099109;28;20236;-83
2024/04/20 14:05:21;;;;;;;12.75;2.55;;;19.10;50.30;;;;;;5149389;27;20267;-84
2024/04/20 14:08:03;;;;;;;12.25;1.90;;;19.10;50.80;;;;;;5095693;28;20229;-83